Time;durP1;ratioP1;P1;durP2;ratioP2;P2;SDS_P1;SDS_P2;PMS_P1;PMS_P2;Temp;Humidity;BMP_temperature;BMP_pressure;BME280_temperature;BME280_humidity;BME280_pressure;Samples;Min_cycle;Max_cycle;Signal;HPM_P1;HPM_P2
2021/08/01 00:00:17;;;;;;;7.13;4.22;;;19.00;77.70;;;;;;5077689;28;20028;-52
2021/08/01 00:02:43;;;;;;;7.00;4.45;;;19.10;78.00;;;;;;5074394;28;20066;-55
2021/08/01 00:05:10;;;;;;;10.82;5.25;;;19.10;77.90;;;;;;5093593;28;20490;-54
2021/08/01 00:07:39;;;;;;;10.73;5.00;;;19.10;78.00;;;;;;5095830;28;20028;-56
2021/08/01 00:10:07;;;;;;;13.43;5.65;;;19.00;78.50;;;;;;5095552;28;20035;-51
2021/08/01 00:12:34;;;;;;;11.85;4.90;;;19.00;78.70;;;;;;5082300;28;20055;-52
2021/08/01 00:15:00;;;;;;;13.65;5.32;;;19.00;78.50;;;;;;5095869;28;20016;-53
2021/08/01 00:17:26;;;;;;;9.30;4.72;;;19.00;78.30;;;;;;5094762;28;20031;-55
2021/08/01 00:19:51;;;;;;;8.80;5.50;;;19.00;78.30;;;;;;5091284;28;20395;-52
2021/08/01 00:22:17;;;;;;;8.88;5.32;;;19.00;78.50;;;;;;5095696;28;20119;-52
2021/08/01 00:24:43;;;;;;;10.38;5.70;;;19.00;78.20;;;;;;5095430;28;20068;-51
2021/08/01 00:27:09;;;;;;;12.55;4.80;;;19.00;78.00;;;;;;5094610;28;20422;-53
2021/08/01 00:29:34;;;;;;;8.60;5.10;;;19.00;78.60;;;;;;5095151;28;20215;-53
2021/08/01 00:32:02;;;;;;;13.60;4.57;;;18.90;79.30;;;;;;5094980;28;20514;-53
2021/08/01 00:34:28;;;;;;;11.70;5.32;;;18.90;80.20;;;;;;5095223;28;20036;-50
2021/08/01 00:36:53;;;;;;;11.38;4.70;;;18.80;80.90;;;;;;5094921;28;20527;-58
2021/08/01 00:39:19;;;;;;;9.70;5.47;;;18.70;80.80;;;;;;5095388;28;20077;-54
2021/08/01 00:41:45;;;;;;;10.00;5.20;;;18.70;81.10;;;;;;5095466;28;20120;-52
2021/08/01 00:44:11;;;;;;;12.35;5.32;;;18.60;81.80;;;;;;5083266;28;20036;-51
2021/08/01 00:46:39;;;;;;;11.73;9.13;;;18.50;82.30;;;;;;5087962;28;20041;-51
2021/08/01 00:49:05;;;;;;;14.80;11.43;;;18.50;82.60;;;;;;5094976;28;20020;-54
2021/08/01 00:51:33;;;;;;;18.73;15.80;;;18.50;82.40;;;;;;5094302;28;20051;-55
2021/08/01 00:54:01;;;;;;;22.00;18.85;;;18.60;82.50;;;;;;5095285;28;20016;-52
2021/08/01 00:56:29;;;;;;;14.23;12.30;;;18.70;82.50;;;;;;5094893;28;20066;-51
2021/08/01 00:58:55;;;;;;;12.50;10.50;;;18.70;82.60;;;;;;5094350;28;20022;-50
2021/08/01 01:01:33;;;;;;;16.77;10.70;;;18.80;82.90;;;;;;5095861;28;20020;-51
2021/08/01 01:04:25;;;;;;;11.73;10.18;;;18.80;82.90;;;;;;5094082;28;20046;-55
2021/08/01 01:07:04;;;;;;;17.77;12.95;;;18.70;82.70;;;;;;5093521;28;20024;-56
2021/08/01 01:09:37;;;;;;;14.02;10.68;;;18.80;82.80;;;;;;5096598;28;20070;-55
2021/08/01 01:12:05;;;;;;;10.68;8.40;;;18.80;82.60;;;;;;5082698;28;20105;-51
2021/08/01 01:14:36;;;;;;;10.65;8.43;;;18.80;82.20;;;;;;5094310;28;20031;-53
2021/08/01 01:17:04;;;;;;;15.18;11.68;;;18.80;82.90;;;;;;5093954;28;20035;-55
2021/08/01 01:19:43;;;;;;;9.88;7.85;;;18.70;82.60;;;;;;5090345;28;20056;-54
2021/08/01 01:22:18;;;;;;;10.73;6.55;;;18.70;82.20;;;;;;5094293;28;20086;-55
2021/08/01 01:24:46;;;;;;;13.13;6.88;;;18.60;81.80;;;;;;5094160;28;20098;-55
2021/08/01 01:27:24;;;;;;;10.05;6.95;;;18.60;82.20;;;;;;5093929;28;20032;-52
2021/08/01 01:29:53;;;;;;;11.73;6.75;;;18.50;82.10;;;;;;5094961;28;20044;-51
2021/08/01 01:32:44;;;;;;;9.82;6.72;;;18.40;82.60;;;;;;5094009;28;20035;-52
2021/08/01 01:35:18;;;;;;;9.18;6.10;;;18.40;83.50;;;;;;5082435;28;20028;-53
2021/08/01 01:37:51;;;;;;;;;;;18.30;83.90;;;;;;5094412;28;20105;-57
2021/08/01 01:40:21;;;;;;;8.10;6.20;;;18.20;83.40;;;;;;5074867;28;19919;-50
2021/08/01 01:42:51;;;;;;;8.05;6.18;;;18.30;83.20;;;;;;5083743;28;20035;-52
2021/08/01 01:45:18;;;;;;;9.60;6.97;;;18.30;83.30;;;;;;5092015;28;20032;-52
2021/08/01 01:47:47;;;;;;;8.90;6.53;;;18.20;84.80;;;;;;5093477;28;20028;-51
2021/08/01 01:50:16;;;;;;;8.52;6.63;;;18.30;85.20;;;;;;5093269;28;20032;-52
2021/08/01 01:52:48;;;;;;;9.82;8.10;;;18.30;85.00;;;;;;5093640;28;20032;-51
2021/08/01 01:55:18;;;;;;;9.82;8.60;;;18.30;84.70;;;;;;5092994;28;20070;-52
2021/08/01 01:57:44;;;;;;;10.40;7.88;;;18.40;84.40;;;;;;5075005;28;20039;-51
2021/08/01 02:00:10;;;;;;;11.90;7.70;;;18.40;84.00;;;;;;5093418;28;20081;-56
2021/08/01 02:02:36;;;;;;;7.57;6.28;;;18.40;83.60;;;;;;5092875;28;20044;-51
2021/08/01 02:05:05;;;;;;;8.23;5.82;;;18.40;83.50;;;;;;5093236;28;20084;-48
2021/08/01 02:07:32;;;;;;;10.35;6.30;;;18.40;83.40;;;;;;5093658;28;20105;-50
2021/08/01 02:10:33;;;;;;;7.32;5.50;;;18.40;83.20;;;;;;5093397;28;20028;-49
2021/08/01 02:13:07;;;;;;;7.50;5.25;;;18.30;83.10;;;;;;5048184;28;20032;-55
2021/08/01 02:15:52;;;;;;;5.97;5.38;;;18.20;83.40;;;;;;5092584;28;20077;-56
2021/08/01 02:18:30;;;;;;;6.13;5.50;;;18.20;83.70;;;;;;5093370;28;20047;-55
2021/08/01 02:20:57;;;;;;;6.55;5.03;;;18.20;84.00;;;;;;5088844;28;20032;-54
2021/08/01 02:23:30;;;;;;;8.45;6.75;;;18.20;84.50;;;;;;5092572;28;20502;-55
2021/08/01 02:26:06;;;;;;;6.78;5.55;;;18.10;84.90;;;;;;5092424;28;20093;-53
2021/08/01 02:28:40;;;;;;;8.07;6.13;;;18.00;84.70;;;;;;5090879;28;20040;-55
2021/08/01 02:31:07;;;;;;;8.98;6.47;;;18.00;85.40;;;;;;5092065;28;20074;-57
2021/08/01 02:33:34;;;;;;;5.80;5.20;;;18.00;85.30;;;;;;5092481;28;20025;-54
2021/08/01 02:36:08;;;;;;;6.13;5.47;;;18.10;85.00;;;;;;5074651;28;20028;-54
2021/08/01 02:38:35;;;;;;;7.68;4.88;;;18.10;85.00;;;;;;5092409;28;20032;-54
2021/08/01 02:41:05;;;;;;;8.23;5.10;;;18.10;84.90;;;;;;5087614;28;20028;-52
2021/08/01 02:43:32;;;;;;;9.13;5.68;;;18.20;84.40;;;;;;5073086;28;20119;-52
2021/08/01 02:45:59;;;;;;;10.60;5.50;;;18.00;85.20;;;;;;5091671;28;20542;-51
2021/08/01 02:48:28;;;;;;;7.95;5.30;;;17.80;85.60;;;;;;5092632;28;20043;-55
2021/08/01 02:50:59;;;;;;;7.25;5.55;;;17.70;86.20;;;;;;5092510;28;20210;-51
2021/08/01 02:53:27;;;;;;;5.78;5.18;;;17.60;85.90;;;;;;5091932;28;20560;-51
2021/08/01 02:55:57;;;;;;;8.57;4.78;;;17.50;86.20;;;;;;5092720;28;20031;-53
2021/08/01 02:58:27;;;;;;;7.18;5.50;;;17.70;85.20;;;;;;5092531;28;20028;-50
2021/08/01 03:00:53;;;;;;;8.00;5.68;;;17.70;85.10;;;;;;5091185;28;20082;-48
2021/08/01 03:03:21;;;;;;;7.97;4.95;;;17.60;86.20;;;;;;5091883;28;20036;-53
2021/08/01 03:05:47;;;;;;;5.60;5.05;;;17.50;87.00;;;;;;5091197;28;20391;-53
2021/08/01 03:08:13;;;;;;;10.00;4.80;;;17.50;87.00;;;;;;5091298;28;20442;-50
2021/08/01 03:10:43;;;;;;;8.30;5.55;;;17.40;86.40;;;;;;5091787;28;20098;-52
2021/08/01 03:13:09;;;;;;;7.05;5.07;;;17.60;86.60;;;;;;5091649;28;20444;-50
2021/08/01 03:15:35;;;;;;;10.38;5.05;;;17.50;87.00;;;;;;5091203;28;20052;-50
2021/08/01 03:18:00;;;;;;;7.40;5.45;;;17.50;85.80;;;;;;5091293;28;20142;-54
2021/08/01 03:20:26;;;;;;;5.97;4.75;;;17.50;87.10;;;;;;5088783;28;20036;-50
2021/08/01 03:22:51;;;;;;;9.77;5.85;;;17.60;86.80;;;;;;5091615;28;20432;-54
2021/08/01 03:25:17;;;;;;;7.05;6.35;;;17.60;85.80;;;;;;5091886;28;20024;-56
2021/08/01 03:27:42;;;;;;;9.80;6.55;;;17.70;85.90;;;;;;5091688;28;20035;-51
2021/08/01 03:30:09;;;;;;;8.68;6.85;;;17.80;85.50;;;;;;5091458;28;20028;-52
2021/08/01 03:32:34;;;;;;;12.40;7.57;;;17.90;85.20;;;;;;5091258;28;20148;-50
2021/08/01 03:35:00;;;;;;;9.18;6.97;;;17.90;85.10;;;;;;5092563;28;20058;-52
2021/08/01 03:37:27;;;;;;;5.82;5.30;;;18.00;84.90;;;;;;5090899;28;20032;-50
2021/08/01 03:39:52;;;;;;;7.30;5.75;;;18.10;84.50;;;;;;5089718;28;20424;-52
2021/08/01 03:42:18;;;;;;;7.38;5.47;;;18.10;85.00;;;;;;5096215;28;20129;-52
2021/08/01 03:44:44;;;;;;;8.43;5.43;;;18.00;84.70;;;;;;5096121;28;20033;-52
2021/08/01 03:47:09;;;;;;;7.75;4.85;;;18.00;85.20;;;;;;5095532;28;20047;-51
2021/08/01 03:49:35;;;;;;;6.30;5.28;;;18.10;84.80;;;;;;5096101;28;20036;-51
2021/08/01 03:52:01;;;;;;;9.73;5.13;;;18.00;84.60;;;;;;5095896;28;20028;-55
2021/08/01 03:54:26;;;;;;;7.55;5.32;;;18.00;85.10;;;;;;5096011;28;20111;-53
2021/08/01 03:56:52;;;;;;;8.45;5.47;;;17.90;85.40;;;;;;5095671;28;20051;-55
2021/08/01 03:59:17;;;;;;;9.05;5.35;;;18.00;84.70;;;;;;5095740;28;20031;-52
2021/08/01 04:01:43;;;;;;;6.80;5.70;;;17.90;85.30;;;;;;5095735;28;20024;-53
2021/08/01 04:04:09;;;;;;;9.55;5.93;;;17.80;85.60;;;;;;5096030;28;20036;-55
2021/08/01 04:06:34;;;;;;;10.10;5.93;;;17.90;85.70;;;;;;5095378;28;20024;-51
2021/08/01 04:09:00;;;;;;;7.05;4.93;;;17.90;85.50;;;;;;5095734;28;20503;-54
2021/08/01 04:11:26;;;;;;;8.65;5.05;;;17.80;85.60;;;;;;5095274;28;20067;-51
2021/08/01 04:13:52;;;;;;;5.70;5.10;;;17.90;85.40;;;;;;5095370;28;20119;-51
2021/08/01 04:16:18;;;;;;;6.85;4.93;;;17.90;86.10;;;;;;5076812;28;20112;-56
2021/08/01 04:18:43;;;;;;;9.80;6.00;;;17.80;86.90;;;;;;5093192;28;20028;-53
2021/08/01 04:21:14;;;;;;;9.45;6.25;;;17.80;87.30;;;;;;5091032;28;20535;-51
2021/08/01 04:23:41;;;;;;;10.45;7.63;;;17.70;87.70;;;;;;5094370;28;20031;-52
2021/08/01 04:26:09;;;;;;;10.50;8.30;;;17.80;87.50;;;;;;5094811;28;20078;-49
2021/08/01 04:28:36;;;;;;;11.23;7.93;;;17.90;87.10;;;;;;5095100;28;20051;-53
2021/08/01 04:31:02;;;;;;;12.10;7.25;;;18.00;86.70;;;;;;5076957;28;20559;-52
2021/08/01 04:33:27;;;;;;;8.98;7.40;;;18.10;86.20;;;;;;5095040;28;20092;-55
2021/08/01 04:35:53;;;;;;;9.15;6.35;;;18.20;85.80;;;;;;5095066;28;20119;-56
2021/08/01 04:38:19;;;;;;;10.68;7.00;;;18.10;86.50;;;;;;5094763;28;20399;-54
2021/08/01 04:40:45;;;;;;;10.75;6.03;;;18.10;86.70;;;;;;5095341;28;20031;-54
2021/08/01 04:43:11;;;;;;;8.02;5.78;;;18.20;86.20;;;;;;5094873;28;20393;-55
2021/08/01 04:45:36;;;;;;;8.30;5.95;;;18.10;86.20;;;;;;5094442;28;20141;-54
2021/08/01 04:48:02;;;;;;;10.50;6.05;;;18.00;86.40;;;;;;5094655;28;20028;-56
2021/08/01 04:50:27;;;;;;;11.45;5.30;;;18.00;86.90;;;;;;5094214;28;20119;-55
2021/08/01 04:52:53;;;;;;;8.40;5.60;;;18.00;86.40;;;;;;5077042;28;20028;-56
2021/08/01 04:55:19;;;;;;;7.05;5.57;;;18.10;86.00;;;;;;5094357;28;20633;-51
2021/08/01 04:57:45;;;;;;;9.75;5.35;;;18.20;85.50;;;;;;5094271;28;20028;-53
2021/08/01 05:00:12;;;;;;;6.53;5.38;;;18.30;85.20;;;;;;5078162;28;20376;-53
2021/08/01 05:02:37;;;;;;;8.80;5.65;;;18.40;85.00;;;;;;5095519;28;20090;-53
2021/08/01 05:05:04;;;;;;;9.40;5.97;;;18.40;84.80;;;;;;5094698;28;20028;-50
2021/08/01 05:07:30;;;;;;;13.07;6.70;;;18.40;84.30;;;;;;5095142;28;20062;-51
2021/08/01 05:09:56;;;;;;;8.07;5.43;;;18.40;84.20;;;;;;5094214;28;20056;-50
2021/08/01 05:12:21;;;;;;;8.93;5.50;;;18.40;84.30;;;;;;5094412;28;20491;-54
2021/08/01 05:14:47;;;;;;;8.32;5.75;;;18.30;84.60;;;;;;5094671;28;20032;-52
2021/08/01 05:17:13;;;;;;;6.13;4.57;;;18.30;84.70;;;;;;5093508;28;20395;-50
2021/08/01 05:19:39;;;;;;;7.13;5.75;;;18.20;85.20;;;;;;5089957;28;20032;-50
2021/08/01 05:22:06;;;;;;;10.82;5.40;;;18.30;85.30;;;;;;5094205;28;20119;-55
2021/08/01 05:24:32;;;;;;;9.93;5.53;;;18.10;85.90;;;;;;5094057;28;20036;-52
2021/08/01 05:26:57;;;;;;;6.65;5.13;;;18.00;85.80;;;;;;5093798;28;20503;-52
2021/08/01 05:29:23;;;;;;;6.82;5.30;;;17.90;86.00;;;;;;5093488;28;20043;-54
2021/08/01 05:31:48;;;;;;;6.60;5.30;;;17.90;86.00;;;;;;5094171;28;20035;-53
2021/08/01 05:34:14;;;;;;;8.50;5.40;;;17.90;85.50;;;;;;5094082;28;20104;-54
2021/08/01 05:36:40;;;;;;;6.03;5.13;;;17.90;85.60;;;;;;5093563;28;20105;-55
2021/08/01 05:39:05;;;;;;;9.52;4.72;;;18.00;86.10;;;;;;5093914;28;20097;-53
2021/08/01 05:41:31;;;;;;;8.85;4.75;;;17.90;85.30;;;;;;5088507;28;20025;-53
2021/08/01 05:43:56;;;;;;;6.82;4.38;;;17.70;85.90;;;;;;5093452;28;20146;-53
2021/08/01 05:46:22;;;;;;;7.80;5.15;;;17.80;86.10;;;;;;5093806;28;20031;-54
2021/08/01 05:48:47;;;;;;;6.82;5.05;;;18.00;85.60;;;;;;5094864;28;20028;-51
2021/08/01 05:51:13;;;;;;;9.05;5.18;;;18.10;85.40;;;;;;5094342;28;20027;-52
2021/08/01 05:53:38;;;;;;;5.65;4.95;;;18.20;84.90;;;;;;5093955;28;20043;-55
2021/08/01 05:56:11;;;;;;;7.50;4.90;;;18.30;84.30;;;;;;5085766;28;20046;-55
2021/08/01 05:58:37;;;;;;;5.68;5.00;;;18.50;83.70;;;;;;5088808;28;20020;-54
2021/08/01 06:01:11;;;;;;;8.23;5.70;;;18.60;83.00;;;;;;5096476;28;20103;-49
2021/08/01 06:03:37;;;;;;;7.60;4.90;;;18.70;82.50;;;;;;5094383;28;20036;-55
2021/08/01 06:06:11;;;;;;;7.32;5.10;;;18.70;82.50;;;;;;5094034;28;20062;-55
2021/08/01 06:08:36;;;;;;;10.95;8.32;;;18.60;82.60;;;;;;5081136;28;20066;-54
2021/08/01 06:11:04;;;;;;;7.70;5.05;;;18.50;82.90;;;;;;5091796;28;20119;-55
2021/08/01 06:13:30;;;;;;;7.57;5.18;;;18.50;83.20;;;;;;5092783;28;20060;-55
2021/08/01 06:15:55;;;;;;;5.82;5.13;;;18.60;83.30;;;;;;5092838;28;20052;-53
2021/08/01 06:18:21;;;;;;;12.25;6.30;;;18.60;83.90;;;;;;5093173;28;20023;-54
2021/08/01 06:20:46;;;;;;;5.93;4.97;;;18.70;84.50;;;;;;5088857;28;20081;-54
2021/08/01 06:23:12;;;;;;;6.20;4.90;;;18.70;85.00;;;;;;5092009;28;20035;-55
2021/08/01 06:25:38;;;;;;;6.45;5.10;;;18.80;84.70;;;;;;5092620;28;20028;-55
2021/08/01 06:28:05;;;;;;;6.43;5.50;;;18.90;84.60;;;;;;5093032;28;20075;-52
2021/08/01 06:30:30;;;;;;;9.25;5.65;;;18.90;84.80;;;;;;5093121;28;20036;-52
2021/08/01 06:32:56;;;;;;;9.63;5.38;;;18.90;85.50;;;;;;5074714;28;20487;-56
2021/08/01 06:35:21;;;;;;;11.05;6.13;;;19.00;85.50;;;;;;5092711;28;20024;-54
2021/08/01 06:37:47;;;;;;;10.07;6.32;;;19.10;85.90;;;;;;5093228;28;20032;-56
2021/08/01 06:40:15;;;;;;;9.13;5.70;;;19.00;86.10;;;;;;5092057;28;20035;-55
2021/08/01 06:42:40;;;;;;;8.63;6.00;;;19.10;85.80;;;;;;5092535;28;20391;-53
2021/08/01 06:45:06;;;;;;;6.88;6.00;;;19.30;85.20;;;;;;5074685;28;20032;-55
2021/08/01 06:47:31;;;;;;;8.65;6.00;;;19.30;85.20;;;;;;5092155;28;20606;-51
2021/08/01 06:49:57;;;;;;;10.20;6.28;;;19.30;85.50;;;;;;5092699;28;20047;-55
2021/08/01 06:52:22;;;;;;;10.10;6.28;;;19.30;85.50;;;;;;5092648;28;20063;-52
2021/08/01 06:54:48;;;;;;;7.82;5.45;;;19.20;85.60;;;;;;5093865;28;20039;-49
2021/08/01 06:57:13;;;;;;;9.07;5.78;;;19.30;86.20;;;;;;5094191;28;20059;-55
2021/08/01 06:59:39;;;;;;;10.25;5.72;;;19.30;86.10;;;;;;5093534;28;20036;-51
2021/08/01 07:02:05;;;;;;;8.88;6.25;;;19.20;85.70;;;;;;5092883;28;20138;-50
2021/08/01 07:04:31;;;;;;;8.23;5.82;;;19.30;85.90;;;;;;5092231;28;20137;-53
2021/08/01 07:07:00;;;;;;;7.05;6.03;;;19.30;85.80;;;;;;5068294;28;20043;-55
2021/08/01 07:09:28;;;;;;;9.27;6.38;;;19.30;85.90;;;;;;5084907;28;20392;-52
2021/08/01 07:11:57;;;;;;;9.00;6.43;;;19.30;85.50;;;;;;5092091;28;20023;-53
2021/08/01 07:14:25;;;;;;;12.23;7.20;;;19.40;85.10;;;;;;5092252;28;20487;-51
2021/08/01 07:16:50;;;;;;;9.80;6.88;;;19.40;85.00;;;;;;5092373;28;20024;-56
2021/08/01 07:19:16;;;;;;;11.80;7.68;;;19.40;85.30;;;;;;5085527;28;20032;-56
2021/08/01 07:21:42;;;;;;;10.15;7.38;;;19.60;85.20;;;;;;5088200;28;20027;-53
2021/08/01 07:24:08;;;;;;;13.05;7.05;;;19.60;85.60;;;;;;5091527;28;20478;-53
2021/08/01 07:26:33;;;;;;;19.73;13.05;;;19.60;85.70;;;;;;5091565;28;20044;-56
2021/08/01 07:28:59;;;;;;;10.93;8.73;;;19.80;84.90;;;;;;5092459;28;20028;-55
2021/08/01 07:31:25;;;;;;;10.25;7.13;;;19.80;85.00;;;;;;5073813;28;20055;-50
2021/08/01 07:33:50;;;;;;;12.88;7.75;;;19.90;84.70;;;;;;5092002;28;20036;-57
2021/08/01 07:36:16;;;;;;;16.65;8.10;;;20.00;84.20;;;;;;5091822;28;20062;-51
2021/08/01 07:38:43;;;;;;;12.25;8.43;;;20.10;84.60;;;;;;5092006;28;20028;-54
2021/08/01 07:41:08;;;;;;;12.45;7.80;;;20.00;84.80;;;;;;5091612;28;20032;-56
2021/08/01 07:43:34;;;;;;;13.23;7.22;;;20.00;84.80;;;;;;5092655;28;20085;-53
2021/08/01 07:45:59;;;;;;;10.32;8.38;;;20.00;85.10;;;;;;5091544;28;20056;-57
2021/08/01 07:48:25;;;;;;;10.05;7.00;;;20.10;84.10;;;;;;5091714;28;20094;-51
2021/08/01 07:50:50;;;;;;;9.15;7.05;;;20.10;85.40;;;;;;5073346;28;20075;-56
2021/08/01 07:53:16;;;;;;;7.80;6.78;;;20.20;84.90;;;;;;5091704;28;20501;-55
2021/08/01 07:55:43;;;;;;;12.23;7.55;;;20.00;85.40;;;;;;5092007;28;20021;-56
2021/08/01 07:58:08;;;;;;;9.65;7.43;;;20.00;85.70;;;;;;5074003;28;20399;-52
2021/08/01 08:00:34;;;;;;;9.07;7.53;;;19.90;86.30;;;;;;5094300;28;20036;-56
2021/08/01 08:02:59;;;;;;;11.07;6.90;;;19.80;85.90;;;;;;5092854;28;20028;-50
2021/08/01 08:05:25;;;;;;;12.77;7.00;;;19.80;85.50;;;;;;5091226;28;20024;-55
2021/08/01 08:07:51;;;;;;;12.70;8.00;;;19.80;85.40;;;;;;5091763;28;20373;-53
2021/08/01 08:10:17;;;;;;;10.32;7.22;;;19.60;86.60;;;;;;5091858;28;20039;-52
2021/08/01 08:12:43;;;;;;;9.98;6.53;;;19.60;86.50;;;;;;5091256;28;20032;-49
2021/08/01 08:15:09;;;;;;;10.50;6.55;;;19.60;87.20;;;;;;5091889;28;20016;-52
2021/08/01 08:17:35;;;;;;;10.07;6.70;;;19.70;87.00;;;;;;5091014;28;20044;-53
2021/08/01 08:20:04;;;;;;;8.63;6.18;;;19.90;86.30;;;;;;5087392;28;20035;-55
2021/08/01 08:22:29;;;;;;;8.90;6.53;;;19.70;86.60;;;;;;5090145;28;20043;-52
2021/08/01 08:24:55;;;;;;;10.52;7.05;;;19.80;86.30;;;;;;5091598;28;20028;-56
2021/08/01 08:27:21;;;;;;;9.20;6.80;;;19.80;86.10;;;;;;5094567;28;20036;-56
2021/08/01 08:29:46;;;;;;;8.93;6.35;;;19.80;86.80;;;;;;5095261;28;20510;-56
2021/08/01 08:32:12;;;;;;;7.88;6.43;;;20.10;85.80;;;;;;5095797;28;20165;-56
2021/08/01 08:34:37;;;;;;;8.57;6.88;;;20.30;85.20;;;;;;5097946;28;20032;-57
2021/08/01 08:37:03;;;;;;;8.52;6.90;;;20.40;84.30;;;;;;5077796;28;20024;-52
2021/08/01 08:39:29;;;;;;;7.45;6.55;;;20.50;83.50;;;;;;5096250;28;20089;-53
2021/08/01 08:42:00;;;;;;;9.55;7.15;;;20.40;83.70;;;;;;5094822;28;20032;-55
2021/08/01 08:44:27;;;;;;;6.68;6.00;;;20.40;83.60;;;;;;5076116;28;20071;-55
2021/08/01 08:46:56;;;;;;;9.65;6.85;;;20.40;83.20;;;;;;5093945;28;20024;-56
2021/08/01 08:49:23;;;;;;;8.48;7.00;;;20.50;82.20;;;;;;5094375;28;20024;-56
2021/08/01 08:51:52;;;;;;;7.70;6.15;;;20.50;82.20;;;;;;5096447;28;20112;-57
2021/08/01 08:54:39;;;;;;;7.53;5.75;;;20.50;82.10;;;;;;5091654;28;20419;-52
2021/08/01 08:57:29;;;;;;;7.10;6.03;;;20.50;81.80;;;;;;5094296;28;20016;-55
2021/08/01 09:00:07;;;;;;;6.72;6.03;;;20.60;81.80;;;;;;5093475;28;20800;-54
2021/08/01 09:02:34;;;;;;;8.70;5.80;;;20.60;82.20;;;;;;5093831;28;20113;-54
2021/08/01 09:05:00;;;;;;;8.65;6.05;;;20.60;82.30;;;;;;5094076;28;20081;-51
2021/08/01 09:07:26;;;;;;;7.72;6.20;;;20.50;82.40;;;;;;5093036;28;20035;-54
2021/08/01 09:09:53;;;;;;;7.40;6.63;;;20.40;81.90;;;;;;5096271;28;20020;-54
2021/08/01 09:12:19;;;;;;;9.18;7.43;;;20.30;82.20;;;;;;5094126;28;20020;-54
2021/08/01 09:14:45;;;;;;;10.60;7.70;;;20.20;82.60;;;;;;5092897;28;20027;-56
2021/08/01 09:17:11;;;;;;;9.10;7.90;;;20.30;82.90;;;;;;5075077;28;20491;-54
2021/08/01 09:19:45;;;;;;;8.35;6.28;;;20.30;82.80;;;;;;5091386;28;20538;-53
2021/08/01 09:22:15;;;;;;;6.20;5.60;;;20.50;82.70;;;;;;5074389;28;20019;-53
2021/08/01 09:24:44;;;;;;;7.70;6.38;;;20.50;82.70;;;;;;5074303;28;20745;-55
2021/08/01 09:27:31;;;;;;;9.15;5.95;;;20.50;82.70;;;;;;5092521;28;20052;-51
2021/08/01 09:29:57;;;;;;;8.55;6.43;;;20.60;82.30;;;;;;5093116;28;20027;-54
2021/08/01 09:32:24;;;;;;;13.02;10.40;;;20.70;81.70;;;;;;5093599;28;20039;-52
2021/08/01 09:34:50;;;;;;;8.35;6.57;;;20.70;82.20;;;;;;5095971;28;20402;-54
2021/08/01 09:37:33;;;;;;;7.93;6.10;;;20.60;81.60;;;;;;5074379;28;20051;-56
2021/08/01 09:40:29;;;;;;;8.07;6.25;;;20.80;81.60;;;;;;5075340;28;20426;-51
2021/08/01 09:43:08;;;;;;;8.13;6.88;;;20.70;81.30;;;;;;5073685;28;20059;-51
2021/08/01 09:45:34;;;;;;;7.70;6.97;;;20.30;82.30;;;;;;5092211;28;20066;-56
2021/08/01 09:48:20;;;;;;;7.30;6.32;;;20.20;82.80;;;;;;5093163;28;20059;-55
2021/08/01 09:51:09;;;;;;;8.63;6.68;;;19.90;83.70;;;;;;5092919;28;20110;-49
2021/08/01 09:53:36;;;;;;;7.20;6.13;;;19.80;84.80;;;;;;5093447;28;20048;-54
2021/08/01 09:56:15;;;;;;;6.60;6.00;;;19.90;84.90;;;;;;5093349;28;20028;-53
2021/08/01 09:58:42;;;;;;;9.90;6.07;;;19.80;85.30;;;;;;5093391;28;20035;-52
2021/08/01 10:01:09;;;;;;;7.97;6.63;;;19.70;85.80;;;;;;5076967;28;20048;-55
2021/08/01 10:03:36;;;;;;;6.82;5.78;;;19.60;86.60;;;;;;5081411;28;20032;-53
2021/08/01 10:06:12;;;;;;;6.93;5.93;;;19.40;87.20;;;;;;5085953;28;20365;-54
2021/08/01 10:08:44;;;;;;;7.68;6.65;;;19.40;88.40;;;;;;5093284;28;20039;-53
2021/08/01 10:11:12;;;;;;;7.95;6.82;;;19.10;90.00;;;;;;5081559;28;20039;-53
2021/08/01 10:13:39;;;;;;;10.60;7.22;;;19.00;90.50;;;;;;5093229;28;20111;-53
2021/08/01 10:16:07;;;;;;;8.02;7.22;;;19.10;90.80;;;;;;5092811;28;20443;-52
2021/08/01 10:18:32;;;;;;;9.10;7.65;;;19.20;90.40;;;;;;5091855;28;20480;-51
2021/08/01 10:20:58;;;;;;;8.18;6.82;;;19.20;90.20;;;;;;5072835;28;20034;-57
2021/08/01 10:23:26;;;;;;;8.55;6.30;;;19.30;90.30;;;;;;5082535;28;20024;-54
2021/08/01 10:25:53;;;;;;;7.78;6.32;;;19.40;90.40;;;;;;5092911;28;20139;-53
2021/08/01 10:28:23;;;;;;;9.40;8.50;;;19.60;89.80;;;;;;5089518;28;20036;-52
2021/08/01 10:30:51;;;;;;;5.88;5.28;;;19.70;89.60;;;;;;5084217;28;20028;-54
2021/08/01 10:33:22;;;;;;;7.00;6.00;;;19.80;87.20;;;;;;5074978;28;20132;-52
2021/08/01 10:36:07;;;;;;;5.88;4.80;;;19.80;86.60;;;;;;5092834;28;20020;-53
2021/08/01 10:38:38;;;;;;;5.80;5.00;;;20.40;85.60;;;;;;5088638;28;20051;-56
2021/08/01 10:41:05;;;;;;;4.97;4.35;;;20.80;82.00;;;;;;5093180;28;20025;-56
2021/08/01 10:43:34;;;;;;;5.28;4.78;;;21.10;82.00;;;;;;5081538;28;20056;-54
2021/08/01 10:46:00;;;;;;;6.05;4.70;;;21.40;80.80;;;;;;5091916;28;20036;-55
2021/08/01 10:48:28;;;;;;;5.32;4.82;;;21.50;79.70;;;;;;5072528;28;20541;-57
2021/08/01 10:50:55;;;;;;;5.38;4.22;;;21.40;78.90;;;;;;5093366;28;20039;-52
2021/08/01 10:53:20;;;;;;;6.00;5.40;;;21.30;79.50;;;;;;5092659;28;20038;-51
2021/08/01 10:55:47;;;;;;;6.35;5.70;;;21.00;80.20;;;;;;5082129;28;20660;-55
2021/08/01 10:58:14;;;;;;;7.13;5.20;;;20.90;81.10;;;;;;5092245;28;20191;-52
2021/08/01 11:00:55;;;;;;;6.95;6.35;;;20.60;82.60;;;;;;5083934;28;20111;-55
2021/08/01 11:03:24;;;;;;;7.38;6.20;;;20.70;82.90;;;;;;5092619;28;20027;-55
2021/08/01 11:05:49;;;;;;;6.80;6.10;;;20.50;83.00;;;;;;5091955;28;20024;-56
2021/08/01 11:08:15;;;;;;;9.32;6.43;;;20.20;85.20;;;;;;5092524;28;20089;-56
2021/08/01 11:10:43;;;;;;;6.65;5.97;;;20.30;85.90;;;;;;5092254;28;20395;-54
2021/08/01 11:13:24;;;;;;;8.00;6.30;;;20.60;85.50;;;;;;5092591;28;20104;-54
2021/08/01 11:15:51;;;;;;;8.82;6.35;;;20.90;84.60;;;;;;5092317;28;20429;-54
2021/08/01 11:18:40;;;;;;;6.07;5.35;;;21.20;82.70;;;;;;5092571;28;20107;-53
2021/08/01 11:21:09;;;;;;;6.95;6.25;;;21.60;82.80;;;;;;5090167;28;20012;-55
2021/08/01 11:23:47;;;;;;;7.18;6.47;;;21.90;80.80;;;;;;5092592;28;20183;-56
2021/08/01 11:26:15;;;;;;;7.57;5.60;;;22.20;79.40;;;;;;5092604;28;20533;-56
2021/08/01 11:28:42;;;;;;;6.45;5.25;;;22.50;79.30;;;;;;5092191;28;20044;-55
2021/08/01 11:31:13;;;;;;;8.23;6.22;;;22.20;78.40;;;;;;5092088;28;20078;-52
2021/08/01 11:33:44;;;;;;;6.57;5.82;;;22.10;79.30;;;;;;5092331;28;20391;-52
2021/08/01 11:36:13;;;;;;;6.47;5.88;;;22.20;79.00;;;;;;5091827;28;20031;-50
2021/08/01 11:38:53;;;;;;;8.27;6.88;;;22.40;77.30;;;;;;5091783;28;20391;-55
2021/08/01 11:41:28;;;;;;;7.63;6.82;;;22.00;77.80;;;;;;5094887;28;20085;-55
2021/08/01 11:44:20;;;;;;;8.35;6.53;;;21.80;79.90;;;;;;5087892;28;20081;-51
2021/08/01 11:49:28;;;;;;;8.13;7.32;;;22.30;78.90;;;;;;5090687;28;20047;-54
2021/08/01 11:51:55;;;;;;;7.55;6.75;;;22.40;78.10;;;;;;5085815;28;20050;-54
2021/08/01 11:54:38;;;;;;;8.38;6.55;;;22.20;78.30;;;;;;5069970;28;20082;-57
2021/08/01 11:57:15;;;;;;;7.78;6.88;;;22.20;78.20;;;;;;5090857;28;20023;-53
2021/08/01 11:59:43;;;;;;;7.00;6.40;;;22.30;78.10;;;;;;5088839;28;20028;-52
2021/08/01 12:02:14;;;;;;;7.78;5.55;;;22.30;76.80;;;;;;5096765;28;20024;-53
2021/08/01 12:04:55;;;;;;;8.32;6.25;;;22.30;78.10;;;;;;5089353;28;20094;-53
2021/08/01 12:07:21;;;;;;;7.10;6.40;;;22.40;78.20;;;;;;5088997;28;20028;-49
2021/08/01 12:09:47;;;;;;;7.10;6.40;;;22.40;77.30;;;;;;5092237;28;20502;-48
2021/08/01 12:12:12;;;;;;;7.22;6.10;;;22.30;77.50;;;;;;5096059;28;20064;-51
2021/08/01 12:14:40;;;;;;;7.50;6.10;;;22.30;78.10;;;;;;5095578;28;20403;-50
2021/08/01 12:17:08;;;;;;;6.93;5.63;;;22.30;78.40;;;;;;5096265;28;20032;-45
2021/08/01 12:19:37;;;;;;;8.77;6.93;;;22.20;79.20;;;;;;5089215;28;20064;-48
2021/08/01 12:22:22;;;;;;;8.70;7.30;;;22.10;79.20;;;;;;5093679;28;20052;-47
2021/08/01 12:24:56;;;;;;;7.47;6.53;;;21.80;78.70;;;;;;5095372;28;20035;-47
2021/08/01 12:27:26;;;;;;;8.30;7.40;;;21.90;79.20;;;;;;5094170;28;20040;-46
2021/08/01 12:30:01;;;;;;;8.82;6.80;;;22.10;79.30;;;;;;5088127;28;20667;-48
2021/08/01 12:32:29;;;;;;;7.10;6.38;;;22.20;78.20;;;;;;5091398;28;20032;-50
2021/08/01 12:35:19;;;;;;;30.10;27.20;;;22.20;78.10;;;;;;5088753;28;20081;-47
2021/08/01 12:38:02;;;;;;;8.75;6.97;;;22.00;79.10;;;;;;5093926;28;20097;-53
2021/08/01 12:40:32;;;;;;;8.63;6.30;;;22.00;77.90;;;;;;5094310;28;20063;-48
2021/08/01 12:43:02;;;;;;;9.82;6.20;;;21.90;78.80;;;;;;5094134;28;20020;-52
2021/08/01 12:45:41;;;;;;;7.85;5.75;;;21.90;79.30;;;;;;5093617;28;20210;-46
2021/08/01 12:48:14;;;;;;;7.82;5.90;;;21.90;79.50;;;;;;5091724;28;20503;-48
2021/08/01 12:50:45;;;;;;;8.82;6.22;;;21.70;79.60;;;;;;5093764;28;20082;-52
2021/08/01 12:53:13;;;;;;;6.93;5.50;;;21.50;79.60;;;;;;5076105;28;20024;-48